sensor_id;sensor_type;location;lat;lon;timestamp;P1;durP1;ratioP1;P2;durP2;ratioP2
41221;SDS011;26952;42.884;23.918;2022-07-29T02:01:01;92.72;;;87.40;;
41221;SDS011;26952;42.884;23.918;2022-07-29T02:03:29;107.63;;;101.55;;
41221;SDS011;26952;42.884;23.918;2022-07-29T02:05:56;96.93;;;91.40;;
41221;SDS011;26952;42.884;23.918;2022-07-29T02:08:23;94.88;;;89.35;;
41221;SDS011;26952;42.884;23.918;2022-07-29T02:10:50;100.90;;;95.07;;
41221;SDS011;26952;42.884;23.918;2022-07-29T02:13:17;100.40;;;94.55;;
41221;SDS011;26952;42.884;23.918;2022-07-29T02:15:46;97.70;;;91.88;;
41221;SDS011;26952;42.884;23.918;2022-07-29T02:18:18;97.85;;;92.07;;
41221;SDS011;26952;42.884;23.918;2022-07-29T02:20:46;96.78;;;91.13;;
41221;SDS011;26952;42.884;23.918;2022-07-29T02:23:14;94.00;;;88.72;;
41221;SDS011;26952;42.884;23.918;2022-07-29T02:25:51;93.13;;;87.80;;
41221;SDS011;26952;42.884;23.918;2022-07-29T02:28:20;96.07;;;90.43;;
41221;SDS011;26952;42.884;23.918;2022-07-29T02:30:49;93.82;;;88.40;;
41221;SDS011;26952;42.884;23.918;2022-07-29T02:33:17;94.85;;;89.68;;
41221;SDS011;26952;42.884;23.918;2022-07-29T02:35:44;91.55;;;86.47;;
41221;SDS011;26952;42.884;23.918;2022-07-29T02:38:12;94.88;;;89.57;;
41221;SDS011;26952;42.884;23.918;2022-07-29T02:41:00;90.97;;;85.88;;
41221;SDS011;26952;42.884;23.918;2022-07-29T02:43:28;87.40;;;82.43;;
41221;SDS011;26952;42.884;23.918;2022-07-29T02:45:57;89.28;;;84.35;;
41221;SDS011;26952;42.884;23.918;2022-07-29T02:48:27;79.65;;;75.38;;
41221;SDS011;26952;42.884;23.918;2022-07-29T02:51:07;72.43;;;68.37;;
41221;SDS011;26952;42.884;23.918;2022-07-29T02:53:39;80.53;;;76.03;;
41221;SDS011;26952;42.884;23.918;2022-07-29T02:56:09;81.80;;;76.95;;
41221;SDS011;26952;42.884;23.918;2022-07-29T03:01:11;71.95;;;67.80;;
41221;SDS011;26952;42.884;23.918;2022-07-29T03:03:40;82.60;;;77.60;;
41221;SDS011;26952;42.884;23.918;2022-07-29T03:06:09;79.80;;;75.25;;
41221;SDS011;26952;42.884;23.918;2022-07-29T03:08:38;82.43;;;77.57;;
41221;SDS011;26952;42.884;23.918;2022-07-29T03:11:04;85.53;;;80.43;;
41221;SDS011;26952;42.884;23.918;2022-07-29T03:13:30;87.70;;;82.70;;
41221;SDS011;26952;42.884;23.918;2022-07-29T03:15:56;85.65;;;80.45;;
41221;SDS011;26952;42.884;23.918;2022-07-29T03:18:23;81.43;;;76.88;;
41221;SDS011;26952;42.884;23.918;2022-07-29T03:20:49;90.13;;;84.75;;
41221;SDS011;26952;42.884;23.918;2022-07-29T03:23:18;83.45;;;78.68;;
41221;SDS011;26952;42.884;23.918;2022-07-29T03:25:44;93.15;;;87.70;;
41221;SDS011;26952;42.884;23.918;2022-07-29T03:28:10;88.30;;;83.38;;
41221;SDS011;26952;42.884;23.918;2022-07-29T03:30:36;91.88;;;86.75;;
41221;SDS011;26952;42.884;23.918;2022-07-29T03:33:01;76.90;;;72.57;;
41221;SDS011;26952;42.884;23.918;2022-07-29T03:35:27;69.18;;;65.32;;
41221;SDS011;26952;42.884;23.918;2022-07-29T03:37:53;64.32;;;60.80;;
41221;SDS011;26952;42.884;23.918;2022-07-29T03:40:21;66.88;;;63.20;;
41221;SDS011;26952;42.884;23.918;2022-07-29T03:42:51;63.42;;;60.00;;
41221;SDS011;26952;42.884;23.918;2022-07-29T03:45:19;71.25;;;67.40;;
41221;SDS011;26952;42.884;23.918;2022-07-29T03:47:47;65.75;;;62.15;;
41221;SDS011;26952;42.884;23.918;2022-07-29T03:50:15;66.68;;;62.88;;
41221;SDS011;26952;42.884;23.918;2022-07-29T03:52:42;63.72;;;60.22;;
41221;SDS011;26952;42.884;23.918;2022-07-29T03:55:08;48.95;;;46.35;;
41221;SDS011;26952;42.884;23.918;2022-07-29T03:57:34;46.50;;;43.83;;
41221;SDS011;26952;42.884;23.918;2022-07-29T04:00:01;43.80;;;41.45;;
41221;SDS011;26952;42.884;23.918;2022-07-29T04:02:28;42.03;;;39.70;;
41221;SDS011;26952;42.884;23.918;2022-07-29T04:04:54;39.72;;;37.58;;
41221;SDS011;26952;42.884;23.918;2022-07-29T04:07:19;39.33;;;37.03;;
41221;SDS011;26952;42.884;23.918;2022-07-29T04:09:45;40.63;;;38.28;;
41221;SDS011;26952;42.884;23.918;2022-07-29T04:12:10;34.50;;;32.60;;
41221;SDS011;26952;42.884;23.918;2022-07-29T04:14:36;30.00;;;28.35;;
41221;SDS011;26952;42.884;23.918;2022-07-29T04:17:02;28.67;;;26.63;;
41221;SDS011;26952;42.884;23.918;2022-07-29T04:19:28;31.42;;;29.67;;
41221;SDS011;26952;42.884;23.918;2022-07-29T04:21:54;29.02;;;27.42;;
41221;SDS011;26952;42.884;23.918;2022-07-29T04:24:20;23.23;;;21.92;;
41221;SDS011;26952;42.884;23.918;2022-07-29T04:26:46;25.60;;;24.08;;
41221;SDS011;26952;42.884;23.918;2022-07-29T04:29:11;27.45;;;25.63;;
41221;SDS011;26952;42.884;23.918;2022-07-29T04:31:39;29.65;;;27.77;;
41221;SDS011;26952;42.884;23.918;2022-07-29T04:34:04;32.83;;;30.98;;
41221;SDS011;26952;42.884;23.918;2022-07-29T04:36:30;41.63;;;39.20;;
41221;SDS011;26952;42.884;23.918;2022-07-29T04:38:55;44.05;;;41.70;;
41221;SDS011;26952;42.884;23.918;2022-07-29T04:41:21;42.33;;;40.03;;
41221;SDS011;26952;42.884;23.918;2022-07-29T04:43:46;39.35;;;37.03;;
41221;SDS011;26952;42.884;23.918;2022-07-29T04:46:11;38.90;;;36.38;;
41221;SDS011;26952;42.884;23.918;2022-07-29T04:48:37;36.40;;;34.25;;
41221;SDS011;26952;42.884;23.918;2022-07-29T04:51:02;38.83;;;36.50;;
41221;SDS011;26952;42.884;23.918;2022-07-29T04:53:28;41.25;;;38.78;;
41221;SDS011;26952;42.884;23.918;2022-07-29T04:55:53;36.75;;;34.50;;
41221;SDS011;26952;42.884;23.918;2022-07-29T04:58:19;43.72;;;41.22;;
41221;SDS011;26952;42.884;23.918;2022-07-29T05:00:44;42.97;;;40.35;;
41221;SDS011;26952;42.884;23.918;2022-07-29T05:03:10;44.13;;;41.38;;
41221;SDS011;26952;42.884;23.918;2022-07-29T05:05:35;42.50;;;39.85;;
41221;SDS011;26952;42.884;23.918;2022-07-29T05:08:00;43.92;;;41.38;;
41221;SDS011;26952;42.884;23.918;2022-07-29T05:10:26;44.38;;;41.58;;
41221;SDS011;26952;42.884;23.918;2022-07-29T05:12:52;41.50;;;39.08;;
41221;SDS011;26952;42.884;23.918;2022-07-29T05:15:17;38.72;;;36.33;;
41221;SDS011;26952;42.884;23.918;2022-07-29T05:17:43;42.90;;;40.30;;
41221;SDS011;26952;42.884;23.918;2022-07-29T05:20:09;50.60;;;47.55;;
41221;SDS011;26952;42.884;23.918;2022-07-29T05:22:35;45.70;;;43.00;;
41221;SDS011;26952;42.884;23.918;2022-07-29T05:25:01;44.58;;;41.80;;
41221;SDS011;26952;42.884;23.918;2022-07-29T05:27:27;49.92;;;46.60;;
41221;SDS011;26952;42.884;23.918;2022-07-29T05:29:53;56.10;;;52.80;;
41221;SDS011;26952;42.884;23.918;2022-07-29T05:32:18;57.78;;;54.38;;
41221;SDS011;26952;42.884;23.918;2022-07-29T05:34:43;58.50;;;55.03;;
41221;SDS011;26952;42.884;23.918;2022-07-29T05:37:09;70.75;;;66.38;;
41221;SDS011;26952;42.884;23.918;2022-07-29T05:39:34;62.10;;;58.38;;
41221;SDS011;26952;42.884;23.918;2022-07-29T05:42:00;59.10;;;55.35;;
41221;SDS011;26952;42.884;23.918;2022-07-29T05:44:25;49.90;;;46.92;;
41221;SDS011;26952;42.884;23.918;2022-07-29T05:46:50;50.13;;;47.20;;
41221;SDS011;26952;42.884;23.918;2022-07-29T05:49:16;54.75;;;51.70;;
41221;SDS011;26952;42.884;23.918;2022-07-29T05:51:42;66.85;;;63.08;;
41221;SDS011;26952;42.884;23.918;2022-07-29T05:54:07;57.75;;;53.92;;
41221;SDS011;26952;42.884;23.918;2022-07-29T05:56:32;51.28;;;48.08;;
41221;SDS011;26952;42.884;23.918;2022-07-29T05:58:58;57.08;;;53.80;;
41221;SDS011;26952;42.884;23.918;2022-07-29T06:01:23;58.42;;;55.17;;
41221;SDS011;26952;42.884;23.918;2022-07-29T06:03:49;51.03;;;48.15;;
41221;SDS011;26952;42.884;23.918;2022-07-29T06:06:14;47.75;;;44.92;;
41221;SDS011;26952;42.884;23.918;2022-07-29T06:08:40;73.70;;;69.55;;
41221;SDS011;26952;42.884;23.918;2022-07-29T06:11:06;81.30;;;76.60;;
41221;SDS011;26952;42.884;23.918;2022-07-29T06:13:33;88.47;;;83.63;;
41221;SDS011;26952;42.884;23.918;2022-07-29T06:15:58;92.95;;;87.82;;
41221;SDS011;26952;42.884;23.918;2022-07-29T06:18:24;101.97;;;96.38;;
41221;SDS011;26952;42.884;23.918;2022-07-29T06:20:50;92.88;;;87.95;;
41221;SDS011;26952;42.884;23.918;2022-07-29T06:23:16;86.43;;;81.68;;
41221;SDS011;26952;42.884;23.918;2022-07-29T06:25:42;81.50;;;76.85;;
41221;SDS011;26952;42.884;23.918;2022-07-29T06:28:07;84.57;;;79.75;;
41221;SDS011;26952;42.884;23.918;2022-07-29T06:30:33;75.88;;;71.60;;
41221;SDS011;26952;42.884;23.918;2022-07-29T06:32:58;57.88;;;54.60;;
41221;SDS011;26952;42.884;23.918;2022-07-29T06:35:25;42.10;;;39.35;;
41221;SDS011;26952;42.884;23.918;2022-07-29T06:37:50;40.25;;;37.55;;
41221;SDS011;26952;42.884;23.918;2022-07-29T06:40:17;46.55;;;43.92;;
41221;SDS011;26952;42.884;23.918;2022-07-29T06:43:01;46.65;;;44.13;;
41221;SDS011;26952;42.884;23.918;2022-07-29T06:45:26;50.55;;;47.50;;
41221;SDS011;26952;42.884;23.918;2022-07-29T06:47:51;53.33;;;50.03;;
41221;SDS011;26952;42.884;23.918;2022-07-29T06:50:17;64.53;;;60.63;;
41221;SDS011;26952;42.884;23.918;2022-07-29T06:52:42;63.83;;;60.25;;
41221;SDS011;26952;42.884;23.918;2022-07-29T06:55:08;60.80;;;57.58;;
41221;SDS011;26952;42.884;23.918;2022-07-29T06:57:33;78.00;;;73.70;;
41221;SDS011;26952;42.884;23.918;2022-07-29T06:59:59;78.40;;;74.22;;
41221;SDS011;26952;42.884;23.918;2022-07-29T07:02:25;90.43;;;85.82;;
41221;SDS011;26952;42.884;23.918;2022-07-29T07:04:50;93.57;;;88.65;;
41221;SDS011;26952;42.884;23.918;2022-07-29T07:07:16;90.70;;;85.88;;
41221;SDS011;26952;42.884;23.918;2022-07-29T07:09:42;89.28;;;84.40;;
41221;SDS011;26952;42.884;23.918;2022-07-29T07:12:07;95.53;;;90.32;;
41221;SDS011;26952;42.884;23.918;2022-07-29T07:14:33;91.53;;;86.47;;
41221;SDS011;26952;42.884;23.918;2022-07-29T07:16:58;89.45;;;84.43;;
41221;SDS011;26952;42.884;23.918;2022-07-29T07:19:25;75.82;;;71.60;;
41221;SDS011;26952;42.884;23.918;2022-07-29T07:21:52;42.80;;;40.10;;
41221;SDS011;26952;42.884;23.918;2022-07-29T07:24:17;34.17;;;32.17;;
41221;SDS011;26952;42.884;23.918;2022-07-29T07:26:43;37.67;;;35.17;;
41221;SDS011;26952;42.884;23.918;2022-07-29T07:29:08;47.88;;;44.83;;
41221;SDS011;26952;42.884;23.918;2022-07-29T07:31:33;60.08;;;56.72;;
41221;SDS011;26952;42.884;23.918;2022-07-29T07:33:59;55.63;;;52.60;;
41221;SDS011;26952;42.884;23.918;2022-07-29T07:36:24;50.83;;;47.83;;
41221;SDS011;26952;42.884;23.918;2022-07-29T07:38:50;52.60;;;49.72;;
41221;SDS011;26952;42.884;23.918;2022-07-29T07:41:15;45.33;;;42.80;;
41221;SDS011;26952;42.884;23.918;2022-07-29T07:43:41;46.22;;;43.55;;
41221;SDS011;26952;42.884;23.918;2022-07-29T07:46:06;50.25;;;47.30;;
41221;SDS011;26952;42.884;23.918;2022-07-29T07:48:31;51.17;;;48.40;;
41221;SDS011;26952;42.884;23.918;2022-07-29T07:50:59;57.40;;;54.13;;
41221;SDS011;26952;42.884;23.918;2022-07-29T07:53:25;60.03;;;56.67;;
41221;SDS011;26952;42.884;23.918;2022-07-29T07:55:51;68.78;;;64.57;;
41221;SDS011;26952;42.884;23.918;2022-07-29T07:58:16;71.75;;;67.47;;
41221;SDS011;26952;42.884;23.918;2022-07-29T08:00:41;79.35;;;74.72;;
41221;SDS011;26952;42.884;23.918;2022-07-29T08:03:08;80.95;;;76.07;;
41221;SDS011;26952;42.884;23.918;2022-07-29T08:05:33;78.65;;;74.07;;
41221;SDS011;26952;42.884;23.918;2022-07-29T08:07:59;79.07;;;74.57;;
41221;SDS011;26952;42.884;23.918;2022-07-29T08:10:24;81.28;;;76.35;;
41221;SDS011;26952;42.884;23.918;2022-07-29T08:13:09;86.30;;;80.88;;
41221;SDS011;26952;42.884;23.918;2022-07-29T08:15:36;94.82;;;89.10;;
41221;SDS011;26952;42.884;23.918;2022-07-29T08:18:04;111.75;;;105.32;;
41221;SDS011;26952;42.884;23.918;2022-07-29T08:20:29;115.88;;;109.13;;
41221;SDS011;26952;42.884;23.918;2022-07-29T08:22:56;111.20;;;104.97;;
41221;SDS011;26952;42.884;23.918;2022-07-29T08:25:22;115.00;;;108.72;;
41221;SDS011;26952;42.884;23.918;2022-07-29T08:27:47;114.55;;;108.15;;
41221;SDS011;26952;42.884;23.918;2022-07-29T08:30:13;105.65;;;99.75;;
41221;SDS011;26952;42.884;23.918;2022-07-29T08:32:38;101.10;;;95.32;;
41221;SDS011;26952;42.884;23.918;2022-07-29T08:35:04;100.25;;;94.05;;
41221;SDS011;26952;42.884;23.918;2022-07-29T08:37:30;103.43;;;97.22;;
41221;SDS011;26952;42.884;23.918;2022-07-29T08:39:55;96.68;;;91.05;;
41221;SDS011;26952;42.884;23.918;2022-07-29T08:42:20;98.13;;;92.30;;
41221;SDS011;26952;42.884;23.918;2022-07-29T08:44:46;96.25;;;90.88;;
41221;SDS011;26952;42.884;23.918;2022-07-29T08:47:13;87.00;;;82.18;;
41221;SDS011;26952;42.884;23.918;2022-07-29T08:49:39;80.03;;;75.57;;
41221;SDS011;26952;42.884;23.918;2022-07-29T08:52:05;74.88;;;70.35;;
41221;SDS011;26952;42.884;23.918;2022-07-29T08:54:31;69.18;;;65.13;;
41221;SDS011;26952;42.884;23.918;2022-07-29T08:56:57;73.55;;;69.07;;
41221;SDS011;26952;42.884;23.918;2022-07-29T08:59:25;68.40;;;64.68;;
41221;SDS011;26952;42.884;23.918;2022-07-29T09:01:53;76.00;;;71.63;;
41221;SDS011;26952;42.884;23.918;2022-07-29T09:04:19;73.80;;;69.63;;
41221;SDS011;26952;42.884;23.918;2022-07-29T09:06:47;70.28;;;65.75;;
41221;SDS011;26952;42.884;23.918;2022-07-29T09:09:14;67.10;;;63.22;;
41221;SDS011;26952;42.884;23.918;2022-07-29T09:11:41;79.07;;;74.18;;
41221;SDS011;26952;42.884;23.918;2022-07-29T09:14:07;87.43;;;82.55;;
41221;SDS011;26952;42.884;23.918;2022-07-29T09:19:25;77.43;;;73.15;;
41221;SDS011;26952;42.884;23.918;2022-07-29T09:21:51;85.20;;;80.45;;
41221;SDS011;26952;42.884;23.918;2022-07-29T09:24:23;91.55;;;86.25;;
41221;SDS011;26952;42.884;23.918;2022-07-29T09:27:00;86.32;;;81.30;;
41221;SDS011;26952;42.884;23.918;2022-07-29T09:29:26;81.05;;;76.05;;
41221;SDS011;26952;42.884;23.918;2022-07-29T09:31:53;67.43;;;63.22;;
41221;SDS011;26952;42.884;23.918;2022-07-29T09:34:24;77.10;;;72.53;;
41221;SDS011;26952;42.884;23.918;2022-07-29T09:36:52;67.75;;;63.72;;
41221;SDS011;26952;42.884;23.918;2022-07-29T09:39:29;86.95;;;82.03;;
41221;SDS011;26952;42.884;23.918;2022-07-29T09:41:59;90.07;;;85.13;;
41221;SDS011;26952;42.884;23.918;2022-07-29T09:44:40;89.85;;;84.80;;
41221;SDS011;26952;42.884;23.918;2022-07-29T09:47:07;87.30;;;82.47;;
41221;SDS011;26952;42.884;23.918;2022-07-29T09:50:19;85.40;;;80.63;;
41221;SDS011;26952;42.884;23.918;2022-07-29T09:52:25;84.68;;;79.47;;
41221;SDS011;26952;42.884;23.918;2022-07-29T09:54:53;93.95;;;88.97;;
41221;SDS011;26952;42.884;23.918;2022-07-29T09:57:28;43.80;;;41.25;;
41221;SDS011;26952;42.884;23.918;2022-07-29T10:00:02;53.15;;;49.65;;
41221;SDS011;26952;42.884;23.918;2022-07-29T10:02:33;60.85;;;57.05;;
41221;SDS011;26952;42.884;23.918;2022-07-29T10:05:02;56.42;;;53.15;;
41221;SDS011;26952;42.884;23.918;2022-07-29T10:07:43;79.45;;;74.75;;
41221;SDS011;26952;42.884;23.918;2022-07-29T10:10:09;82.65;;;78.18;;
41221;SDS011;26952;42.884;23.918;2022-07-29T10:12:34;72.63;;;68.63;;
41221;SDS011;26952;42.884;23.918;2022-07-29T10:15:14;66.43;;;62.83;;
41221;SDS011;26952;42.884;23.918;2022-07-29T10:17:40;77.85;;;73.20;;
41221;SDS011;26952;42.884;23.918;2022-07-29T10:20:07;98.57;;;92.70;;
41221;SDS011;26952;42.884;23.918;2022-07-29T10:22:33;92.07;;;86.47;;
41221;SDS011;26952;42.884;23.918;2022-07-29T10:24:58;97.15;;;91.57;;
41221;SDS011;26952;42.884;23.918;2022-07-29T10:27:24;89.70;;;84.80;;
41221;SDS011;26952;42.884;23.918;2022-07-29T10:29:50;92.70;;;87.45;;
41221;SDS011;26952;42.884;23.918;2022-07-29T10:43:41;91.65;;;86.40;;
41221;SDS011;26952;42.884;23.918;2022-07-29T10:46:09;106.40;;;100.72;;
41221;SDS011;26952;42.884;23.918;2022-07-29T10:51:52;91.55;;;86.57;;
41221;SDS011;26952;42.884;23.918;2022-07-29T10:54:18;87.38;;;82.45;;
41221;SDS011;26952;42.884;23.918;2022-07-29T10:56:44;99.20;;;93.85;;
41221;SDS011;26952;42.884;23.918;2022-07-29T11:01:44;112.97;;;106.60;;
41221;SDS011;26952;42.884;23.918;2022-07-29T11:04:11;111.35;;;105.03;;
41221;SDS011;26952;42.884;23.918;2022-07-29T11:09:24;111.68;;;105.40;;
41221;SDS011;26952;42.884;23.918;2022-07-29T11:11:49;110.50;;;104.32;;
41221;SDS011;26952;42.884;23.918;2022-07-29T11:14:15;121.00;;;114.13;;
41221;SDS011;26952;42.884;23.918;2022-07-29T11:16:58;112.95;;;106.45;;
41221;SDS011;26952;42.884;23.918;2022-07-29T11:19:28;97.75;;;92.43;;
41221;SDS011;26952;42.884;23.918;2022-07-29T11:21:54;98.40;;;92.90;;
41221;SDS011;26952;42.884;23.918;2022-07-29T11:24:24;114.30;;;108.07;;
41221;SDS011;26952;42.884;23.918;2022-07-29T11:27:10;103.70;;;97.85;;
41221;SDS011;26952;42.884;23.918;2022-07-29T11:29:40;114.18;;;107.70;;
41221;SDS011;26952;42.884;23.918;2022-07-29T11:32:14;112.75;;;106.50;;
41221;SDS011;26952;42.884;23.918;2022-07-29T11:34:41;104.88;;;98.97;;
41221;SDS011;26952;42.884;23.918;2022-07-29T11:39:34;93.15;;;88.00;;
41221;SDS011;26952;42.884;23.918;2022-07-29T11:47:37;82.78;;;78.20;;
41221;SDS011;26952;42.884;23.918;2022-07-29T11:50:06;87.53;;;82.78;;
41221;SDS011;26952;42.884;23.918;2022-07-29T11:52:39;125.30;;;118.80;;
41221;SDS011;26952;42.884;23.918;2022-07-29T11:55:11;115.20;;;109.40;;
41221;SDS011;26952;42.884;23.918;2022-07-29T11:58:00;113.55;;;107.60;;
41221;SDS011;26952;42.884;23.918;2022-07-29T12:00:32;125.40;;;118.88;;
41221;SDS011;26952;42.884;23.918;2022-07-29T12:02:59;100.47;;;95.35;;
41221;SDS011;26952;42.884;23.918;2022-07-29T12:08:11;70.78;;;66.65;;
41221;SDS011;26952;42.884;23.918;2022-07-29T12:10:44;83.90;;;78.90;;
41221;SDS011;26952;42.884;23.918;2022-07-29T12:13:10;90.85;;;85.75;;
41221;SDS011;26952;42.884;23.918;2022-07-29T12:15:37;99.85;;;94.28;;
41221;SDS011;26952;42.884;23.918;2022-07-29T12:18:09;90.55;;;84.97;;
41221;SDS011;26952;42.884;23.918;2022-07-29T12:20:39;89.47;;;84.35;;
41221;SDS011;26952;42.884;23.918;2022-07-29T12:23:05;73.57;;;69.15;;
41221;SDS011;26952;42.884;23.918;2022-07-29T12:25:33;80.78;;;76.00;;
41221;SDS011;26952;42.884;23.918;2022-07-29T12:28:01;97.78;;;92.45;;
41221;SDS011;26952;42.884;23.918;2022-07-29T12:33:16;51.33;;;48.35;;
41221;SDS011;26952;42.884;23.918;2022-07-29T12:36:10;49.75;;;46.75;;
41221;SDS011;26952;42.884;23.918;2022-07-29T12:38:39;54.42;;;51.20;;
41221;SDS011;26952;42.884;23.918;2022-07-29T12:41:05;53.40;;;49.92;;
41221;SDS011;26952;42.884;23.918;2022-07-29T12:43:31;56.58;;;53.10;;
41221;SDS011;26952;42.884;23.918;2022-07-29T12:45:57;53.08;;;49.83;;
41221;SDS011;26952;42.884;23.918;2022-07-29T12:48:36;50.08;;;47.15;;
41221;SDS011;26952;42.884;23.918;2022-07-29T12:51:04;50.75;;;47.65;;
41221;SDS011;26952;42.884;23.918;2022-07-29T12:53:32;49.45;;;46.30;;
41221;SDS011;26952;42.884;23.918;2022-07-29T12:55:58;46.15;;;43.53;;
41221;SDS011;26952;42.884;23.918;2022-07-29T12:58:40;49.90;;;47.03;;
41221;SDS011;26952;42.884;23.918;2022-07-29T13:01:10;46.47;;;43.55;;
41221;SDS011;26952;42.884;23.918;2022-07-29T13:03:55;49.60;;;46.70;;
41221;SDS011;26952;42.884;23.918;2022-07-29T13:06:28;58.28;;;54.90;;
41221;SDS011;26952;42.884;23.918;2022-07-29T13:09:07;77.93;;;73.75;;
41221;SDS011;26952;42.884;23.918;2022-07-29T13:11:35;94.88;;;89.55;;
41221;SDS011;26952;42.884;23.918;2022-07-29T13:14:12;99.65;;;94.57;;
41221;SDS011;26952;42.884;23.918;2022-07-29T13:22:06;72.10;;;68.00;;
41221;SDS011;26952;42.884;23.918;2022-07-29T13:24:32;62.38;;;58.67;;
41221;SDS011;26952;42.884;23.918;2022-07-29T13:26:58;56.97;;;53.40;;
41221;SDS011;26952;42.884;23.918;2022-07-29T13:29:24;65.22;;;61.42;;
41221;SDS011;26952;42.884;23.918;2022-07-29T13:31:51;60.03;;;56.45;;
41221;SDS011;26952;42.884;23.918;2022-07-29T13:34:16;77.10;;;72.70;;
41221;SDS011;26952;42.884;23.918;2022-07-29T13:36:44;90.82;;;86.00;;
41221;SDS011;26952;42.884;23.918;2022-07-29T13:39:09;96.20;;;90.80;;
41221;SDS011;26952;42.884;23.918;2022-07-29T13:41:36;87.40;;;82.45;;
41221;SDS011;26952;42.884;23.918;2022-07-29T13:44:01;83.68;;;79.18;;
41221;SDS011;26952;42.884;23.918;2022-07-29T13:46:27;86.35;;;81.55;;
41221;SDS011;26952;42.884;23.918;2022-07-29T13:48:52;91.22;;;86.32;;
41221;SDS011;26952;42.884;23.918;2022-07-29T13:51:18;98.68;;;93.15;;
41221;SDS011;26952;42.884;23.918;2022-07-29T13:53:43;96.45;;;90.55;;
41221;SDS011;26952;42.884;23.918;2022-07-29T13:56:09;98.35;;;92.32;;
41221;SDS011;26952;42.884;23.918;2022-07-29T13:58:34;93.95;;;88.53;;
41221;SDS011;26952;42.884;23.918;2022-07-29T14:00:59;75.75;;;71.75;;
41221;SDS011;26952;42.884;23.918;2022-07-29T14:03:25;75.68;;;71.70;;
41221;SDS011;26952;42.884;23.918;2022-07-29T14:05:51;67.75;;;64.25;;
41221;SDS011;26952;42.884;23.918;2022-07-29T14:08:16;72.63;;;68.78;;
41221;SDS011;26952;42.884;23.918;2022-07-29T14:10:42;69.95;;;66.40;;
41221;SDS011;26952;42.884;23.918;2022-07-29T14:13:07;69.20;;;65.65;;
41221;SDS011;26952;42.884;23.918;2022-07-29T14:15:33;89.80;;;85.25;;
41221;SDS011;26952;42.884;23.918;2022-07-29T14:17:58;67.38;;;63.85;;
41221;SDS011;26952;42.884;23.918;2022-07-29T14:20:23;59.53;;;56.47;;
41221;SDS011;26952;42.884;23.918;2022-07-29T14:22:49;64.07;;;60.25;;
41221;SDS011;26952;42.884;23.918;2022-07-29T14:25:14;63.67;;;60.20;;
41221;SDS011;26952;42.884;23.918;2022-07-29T14:27:39;74.45;;;70.50;;
41221;SDS011;26952;42.884;23.918;2022-07-29T14:30:05;61.85;;;58.65;;
41221;SDS011;26952;42.884;23.918;2022-07-29T14:32:31;73.50;;;69.60;;
41221;SDS011;26952;42.884;23.918;2022-07-29T14:34:57;87.50;;;82.80;;
41221;SDS011;26952;42.884;23.918;2022-07-29T14:37:22;90.57;;;85.55;;
41221;SDS011;26952;42.884;23.918;2022-07-29T14:39:47;99.72;;;94.05;;
41221;SDS011;26952;42.884;23.918;2022-07-29T14:42:13;116.90;;;110.25;;
41221;SDS011;26952;42.884;23.918;2022-07-29T14:44:39;89.07;;;84.00;;
41221;SDS011;26952;42.884;23.918;2022-07-29T14:47:06;86.63;;;81.70;;
41221;SDS011;26952;42.884;23.918;2022-07-29T14:49:31;85.60;;;80.90;;
41221;SDS011;26952;42.884;23.918;2022-07-29T14:51:56;90.20;;;85.25;;
41221;SDS011;26952;42.884;23.918;2022-07-29T14:54:22;93.40;;;88.15;;
41221;SDS011;26952;42.884;23.918;2022-07-29T14:56:47;76.93;;;72.75;;
41221;SDS011;26952;42.884;23.918;2022-07-29T14:59:15;67.03;;;63.50;;
41221;SDS011;26952;42.884;23.918;2022-07-29T15:01:41;70.65;;;66.82;;
41221;SDS011;26952;42.884;23.918;2022-07-29T15:04:06;72.68;;;68.93;;
41221;SDS011;26952;42.884;23.918;2022-07-29T15:06:32;101.80;;;96.32;;
41221;SDS011;26952;42.884;23.918;2022-07-29T15:08:57;100.18;;;94.78;;
41221;SDS011;26952;42.884;23.918;2022-07-29T15:11:23;94.10;;;89.07;;
41221;SDS011;26952;42.884;23.918;2022-07-29T15:13:48;97.53;;;92.40;;
41221;SDS011;26952;42.884;23.918;2022-07-29T15:16:13;89.07;;;84.38;;
41221;SDS011;26952;42.884;23.918;2022-07-29T15:18:39;96.82;;;91.63;;
41221;SDS011;26952;42.884;23.918;2022-07-29T15:21:04;96.88;;;91.72;;
41221;SDS011;26952;42.884;23.918;2022-07-29T15:23:31;103.45;;;97.90;;
41221;SDS011;26952;42.884;23.918;2022-07-29T15:25:58;96.70;;;91.40;;
41221;SDS011;26952;42.884;23.918;2022-07-29T15:28:24;97.68;;;92.35;;
41221;SDS011;26952;42.884;23.918;2022-07-29T15:30:49;93.43;;;88.25;;
41221;SDS011;26952;42.884;23.918;2022-07-29T15:33:15;90.35;;;85.35;;
41221;SDS011;26952;42.884;23.918;2022-07-29T15:35:40;87.65;;;82.70;;
41221;SDS011;26952;42.884;23.918;2022-07-29T15:38:06;75.55;;;71.45;;
41221;SDS011;26952;42.884;23.918;2022-07-29T15:40:31;72.70;;;68.75;;
41221;SDS011;26952;42.884;23.918;2022-07-29T15:42:57;79.07;;;74.95;;
41221;SDS011;26952;42.884;23.918;2022-07-29T15:45:25;83.88;;;79.35;;
41221;SDS011;26952;42.884;23.918;2022-07-29T15:47:51;79.85;;;75.75;;
41221;SDS011;26952;42.884;23.918;2022-07-29T15:50:16;75.88;;;71.88;;
41221;SDS011;26952;42.884;23.918;2022-07-29T15:52:44;80.30;;;76.03;;
41221;SDS011;26952;42.884;23.918;2022-07-29T15:55:09;82.43;;;77.93;;
41221;SDS011;26952;42.884;23.918;2022-07-29T15:57:35;83.75;;;79.00;;
41221;SDS011;26952;42.884;23.918;2022-07-29T16:00:00;91.10;;;86.10;;
41221;SDS011;26952;42.884;23.918;2022-07-29T16:02:26;89.55;;;84.65;;
41221;SDS011;26952;42.884;23.918;2022-07-29T16:04:51;87.60;;;82.90;;
41221;SDS011;26952;42.884;23.918;2022-07-29T16:07:17;82.82;;;78.35;;
41221;SDS011;26952;42.884;23.918;2022-07-29T16:09:42;75.20;;;71.00;;
41221;SDS011;26952;42.884;23.918;2022-07-29T16:12:08;75.60;;;71.47;;
41221;SDS011;26952;42.884;23.918;2022-07-29T16:14:34;65.28;;;61.60;;
41221;SDS011;26952;42.884;23.918;2022-07-29T16:17:00;64.93;;;61.38;;
41221;SDS011;26952;42.884;23.918;2022-07-29T16:19:27;82.03;;;77.70;;
41221;SDS011;26952;42.884;23.918;2022-07-29T16:21:53;95.68;;;90.60;;
41221;SDS011;26952;42.884;23.918;2022-07-29T16:24:19;100.63;;;94.97;;
41221;SDS011;26952;42.884;23.918;2022-07-29T16:26:44;115.95;;;109.55;;
41221;SDS011;26952;42.884;23.918;2022-07-29T16:29:09;77.43;;;72.47;;
41221;SDS011;26952;42.884;23.918;2022-07-29T16:31:35;50.08;;;46.85;;
41221;SDS011;26952;42.884;23.918;2022-07-29T16:34:00;48.28;;;45.38;;
41221;SDS011;26952;42.884;23.918;2022-07-29T16:36:26;47.53;;;44.63;;
41221;SDS011;26952;42.884;23.918;2022-07-29T16:38:51;47.90;;;45.28;;
41221;SDS011;26952;42.884;23.918;2022-07-29T16:41:17;63.40;;;59.97;;
41221;SDS011;26952;42.884;23.918;2022-07-29T16:43:42;70.28;;;66.50;;
41221;SDS011;26952;42.884;23.918;2022-07-29T16:46:08;87.30;;;82.53;;
41221;SDS011;26952;42.884;23.918;2022-07-29T16:48:34;111.40;;;105.13;;
41221;SDS011;26952;42.884;23.918;2022-07-29T16:51:03;116.80;;;110.63;;